createdAt,value
2023-01-30T00:00:08.120Z,96.92
2023-01-30T00:01:07.869Z,97.13
2023-01-30T00:02:08.242Z,97.55
2023-01-30T00:03:07.865Z,97.34
2023-01-30T00:04:07.861Z,97.23
2023-01-30T00:05:07.867Z,97.23
2023-01-30T00:06:07.805Z,96.92
2023-01-30T00:07:08.020Z,96.39
2023-01-30T00:08:07.784Z,96.08
2023-01-30T00:09:07.899Z,96.50
2023-01-30T00:10:07.770Z,96.71
2023-01-30T00:11:07.784Z,96.71
2023-01-30T00:12:07.784Z,96.50
2023-01-30T00:13:07.936Z,96.19
2023-01-30T00:14:07.781Z,96.29
2023-01-30T00:15:07.696Z,96.71
2023-01-30T00:16:07.775Z,96.61
2023-01-30T00:17:07.706Z,96.92
2023-01-30T00:18:07.787Z,96.61
2023-01-30T00:19:07.728Z,96.81
2023-01-30T00:20:07.676Z,97.13
2023-01-30T00:21:07.630Z,96.61
2023-01-30T00:22:07.783Z,96.65
2023-01-30T00:23:07.619Z,97.28
2023-01-30T00:24:08.115Z,97.28
2023-01-30T00:25:07.753Z,97.49
2023-01-30T00:26:07.580Z,97.06
2023-01-30T00:27:07.601Z,96.75
2023-01-30T00:28:07.771Z,97.06
2023-01-30T00:29:07.672Z,97.17
2023-01-30T00:30:07.547Z,96.86
2023-01-30T00:31:07.505Z,96.65
2023-01-30T00:32:07.516Z,96.65
2023-01-30T00:33:07.472Z,96.55
2023-01-30T00:34:07.469Z,96.55
2023-01-30T00:35:07.653Z,97.06
2023-01-30T00:36:07.439Z,96.96
2023-01-30T00:37:08.683Z,96.75
2023-01-30T00:38:07.437Z,96.75
2023-01-30T00:39:07.416Z,96.65
2023-01-30T00:40:07.440Z,96.33
2023-01-30T00:41:07.470Z,96.44
2023-01-30T00:42:07.384Z,96.02
2023-01-30T00:43:07.651Z,96.12
2023-01-30T00:44:07.473Z,96.55
2023-01-30T00:45:07.320Z,96.33
2023-01-30T00:46:07.507Z,96.65
2023-01-30T00:47:07.311Z,96.33
2023-01-30T00:48:07.457Z,95.92
2023-01-30T00:49:07.301Z,95.81
2023-01-30T00:50:07.304Z,96.12
2023-01-30T00:51:07.296Z,96.02
2023-01-30T00:52:07.265Z,96.02
2023-01-30T00:53:07.295Z,96.55
2023-01-30T00:54:07.214Z,96.96
2023-01-30T00:55:07.328Z,96.96
2023-01-30T00:56:07.438Z,96.86
2023-01-30T00:57:07.217Z,96.02
2023-01-30T00:58:07.439Z,96.12
2023-01-30T00:59:07.286Z,96.44
2023-01-30T01:00:07.105Z,95.92
2023-01-30T01:01:07.143Z,95.92
2023-01-30T01:02:07.198Z,95.92
2023-01-30T01:03:07.211Z,96.02
2023-01-30T01:04:07.121Z,95.87
2023-01-30T01:05:07.111Z,96.02
2023-01-30T01:06:07.059Z,95.81
2023-01-30T01:07:07.010Z,95.35
2023-01-30T01:08:07.160Z,95.76
2023-01-30T01:09:07.077Z,95.56
2023-01-30T01:10:07.002Z,95.76
2023-01-30T01:11:06.986Z,95.98
2023-01-30T01:12:07.111Z,95.56
2023-01-30T01:13:07.038Z,95.70
2023-01-30T01:14:07.247Z,96.29
2023-01-30T01:15:06.958Z,96.50
2023-01-30T01:16:07.208Z,96.75
2023-01-30T01:17:06.915Z,96.55
2023-01-30T01:18:07.142Z,96.86
2023-01-30T01:19:06.888Z,96.55
2023-01-30T01:20:06.836Z,96.55
2023-01-30T01:21:06.857Z,95.70
2023-01-30T01:22:06.871Z,95.50
2023-01-30T01:23:06.816Z,96.02
2023-01-30T01:24:06.882Z,96.02
2023-01-30T01:25:07.002Z,96.02
2023-01-30T01:26:06.791Z,95.50
2023-01-30T01:27:06.781Z,95.70
2023-01-30T01:28:06.809Z,96.12
2023-01-30T01:29:06.761Z,96.33
2023-01-30T01:30:06.925Z,95.92
2023-01-30T01:31:06.784Z,95.70
2023-01-30T01:32:06.863Z,96.12
2023-01-30T01:33:06.759Z,95.81
2023-01-30T01:34:06.801Z,95.50
2023-01-30T01:35:06.717Z,95.70
2023-01-30T01:36:06.716Z,95.60
2023-01-30T01:37:06.685Z,95.39
2023-01-30T01:38:06.847Z,95.18
2023-01-30T01:39:06.598Z,95.60
2023-01-30T01:40:06.804Z,95.92
2023-01-30T01:41:06.686Z,96.02
2023-01-30T01:42:06.584Z,96.23
2023-01-30T01:43:06.663Z,96.23
2023-01-30T01:44:06.584Z,95.70
2023-01-30T01:45:06.641Z,95.70
2023-01-30T01:46:06.897Z,96.02
2023-01-30T01:47:06.544Z,95.70
2023-01-30T01:48:06.537Z,95.18
2023-01-30T01:49:06.500Z,95.39
2023-01-30T01:50:06.454Z,95.60
2023-01-30T01:51:06.471Z,95.29
2023-01-30T01:52:06.557Z,95.60
2023-01-30T01:53:06.482Z,95.70
2023-01-30T01:54:06.466Z,95.39
2023-01-30T01:55:06.437Z,95.50
2023-01-30T01:56:06.518Z,95.39
2023-01-30T01:57:06.641Z,95.29
2023-01-30T01:58:06.440Z,95.29
2023-01-30T01:59:06.360Z,95.18
2023-01-30T02:00:06.338Z,95.18
2023-01-30T02:01:06.433Z,95.18
2023-01-30T02:02:06.392Z,95.18
2023-01-30T02:03:06.362Z,94.56
2023-01-30T02:04:06.369Z,94.87
2023-01-30T02:05:06.393Z,94.30
2023-01-30T02:06:06.293Z,94.51
2023-01-30T02:07:06.250Z,94.51
2023-01-30T02:08:06.482Z,94.66
2023-01-30T02:09:06.434Z,94.76
2023-01-30T02:10:06.225Z,94.34
2023-01-30T02:11:06.314Z,94.76
2023-01-30T02:12:06.225Z,94.97
2023-01-30T02:13:06.207Z,94.87
2023-01-30T02:14:06.248Z,94.45
2023-01-30T02:15:06.346Z,94.56
2023-01-30T02:16:06.212Z,94.45
2023-01-30T02:17:06.345Z,94.60
2023-01-30T02:18:06.187Z,94.49
2023-01-30T02:19:06.171Z,95.12
2023-01-30T02:20:06.108Z,95.23
2023-01-30T02:21:06.086Z,95.01
2023-01-30T02:22:06.086Z,95.58
2023-01-30T02:23:06.092Z,95.48
2023-01-30T02:24:06.021Z,95.58
2023-01-30T02:25:06.113Z,95.90
2023-01-30T02:26:06.071Z,95.73
2023-01-30T02:27:06.004Z,95.94
2023-01-30T02:28:05.971Z,96.04
2023-01-30T02:29:05.961Z,95.73
2023-01-30T02:30:06.182Z,95.84
2023-01-30T02:31:06.171Z,95.94
2023-01-30T02:32:06.214Z,95.84
2023-01-30T02:33:05.945Z,96.04
2023-01-30T02:34:05.911Z,95.94
2023-01-30T02:35:06.037Z,95.94
2023-01-30T02:36:05.918Z,96.04
2023-01-30T02:37:06.038Z,96.19
2023-01-30T02:38:05.876Z,96.30
2023-01-30T02:39:06.026Z,96.61
2023-01-30T02:40:05.828Z,96.30
2023-01-30T02:41:05.846Z,96.51
2023-01-30T02:42:05.838Z,96.61
2023-01-30T02:43:05.848Z,96.19
2023-01-30T02:44:05.778Z,96.30
2023-01-30T02:45:05.841Z,96.19
2023-01-30T02:46:05.906Z,96.09
2023-01-30T02:47:05.748Z,96.19
2023-01-30T02:48:05.866Z,96.30
2023-01-30T02:49:05.782Z,96.41
2023-01-30T02:50:05.733Z,96.61
2023-01-30T02:51:05.672Z,96.41
2023-01-30T02:52:05.651Z,96.30
2023-01-30T02:53:05.675Z,96.41
2023-01-30T02:54:05.914Z,96.77
2023-01-30T02:55:05.827Z,96.97
2023-01-30T02:56:05.617Z,97.18
2023-01-30T02:57:05.707Z,97.50
2023-01-30T02:58:05.577Z,97.29
2023-01-30T02:59:05.566Z,96.97
2023-01-30T03:00:05.552Z,96.87
2023-01-30T03:01:05.696Z,96.87
2023-01-30T03:02:05.624Z,97.08
2023-01-30T03:03:05.515Z,96.97
2023-01-30T03:04:05.517Z,96.66
2023-01-30T03:05:05.521Z,96.77
2023-01-30T03:06:05.511Z,96.66
2023-01-30T03:07:05.573Z,96.45
2023-01-30T03:08:05.535Z,96.34
2023-01-30T03:09:05.468Z,96.77
2023-01-30T03:10:05.554Z,96.66
2023-01-30T03:11:05.752Z,96.34
2023-01-30T03:12:05.546Z,96.34
2023-01-30T03:13:05.441Z,96.34
2023-01-30T03:14:05.530Z,96.66
2023-01-30T03:15:05.361Z,96.66
2023-01-30T03:16:05.423Z,96.77
2023-01-30T03:17:05.415Z,96.97
2023-01-30T03:18:05.427Z,96.87
2023-01-30T03:19:05.392Z,96.91
2023-01-30T03:20:05.557Z,96.70
2023-01-30T03:21:05.294Z,96.59
2023-01-30T03:22:05.325Z,96.49
2023-01-30T03:23:05.306Z,96.39
2023-01-30T03:24:05.288Z,96.39
2023-01-30T03:25:05.266Z,96.49
2023-01-30T03:26:05.210Z,96.49
2023-01-30T03:27:05.403Z,96.81
2023-01-30T03:28:05.252Z,96.81
2023-01-30T03:29:05.202Z,96.70
2023-01-30T03:30:05.192Z,96.70
2023-01-30T03:31:05.497Z,96.81
2023-01-30T03:32:05.230Z,97.02
2023-01-30T03:33:05.170Z,97.12
2023-01-30T03:34:05.202Z,96.91
2023-01-30T03:35:05.453Z,97.02
2023-01-30T03:36:05.202Z,96.87
2023-01-30T03:37:05.386Z,96.87
2023-01-30T03:38:05.127Z,96.77
2023-01-30T03:39:05.086Z,96.66
2023-01-30T03:40:05.130Z,96.77
2023-01-30T03:41:05.068Z,97.39
2023-01-30T03:42:05.218Z,97.29
2023-01-30T03:43:05.028Z,96.72
2023-01-30T03:44:05.026Z,96.83
2023-01-30T03:45:05.066Z,96.61
2023-01-30T03:46:05.109Z,96.41
2023-01-30T03:47:04.993Z,96.51
2023-01-30T03:48:05.296Z,95.88
2023-01-30T03:49:05.082Z,95.46
2023-01-30T03:50:04.920Z,95.36
2023-01-30T03:51:05.069Z,94.93
2023-01-30T03:52:05.225Z,95.36
2023-01-30T03:53:04.900Z,95.50
2023-01-30T03:54:04.889Z,95.29
2023-01-30T03:55:04.851Z,95.08
2023-01-30T03:56:04.957Z,95.50
2023-01-30T03:57:05.105Z,95.61
2023-01-30T03:58:04.851Z,95.40
2023-01-30T03:59:05.108Z,95.40
2023-01-30T04:00:04.895Z,95.92
2023-01-30T04:01:05.100Z,96.03
2023-01-30T04:02:04.994Z,96.03
2023-01-30T04:03:05.121Z,96.39
2023-01-30T04:04:04.767Z,96.81
2023-01-30T04:05:04.766Z,97.02
2023-01-30T04:06:04.884Z,96.70
2023-01-30T04:07:04.737Z,96.49
2023-01-30T04:08:04.721Z,96.59
2023-01-30T04:09:04.840Z,96.59
2023-01-30T04:10:04.708Z,96.39
2023-01-30T04:11:04.741Z,96.49
2023-01-30T04:12:04.897Z,96.49
2023-01-30T04:13:04.630Z,96.39
2023-01-30T04:14:04.899Z,96.53
2023-01-30T04:15:04.854Z,96.75
2023-01-30T04:16:04.578Z,96.75
2023-01-30T04:17:04.570Z,96.95
2023-01-30T04:18:04.578Z,96.95
2023-01-30T04:19:04.614Z,97.06
2023-01-30T04:20:04.591Z,97.38
2023-01-30T04:21:04.756Z,97.38
2023-01-30T04:22:04.578Z,97.48
2023-01-30T04:23:04.768Z,97.48
2023-01-30T04:24:04.578Z,97.27
2023-01-30T04:25:04.496Z,97.38
2023-01-30T04:26:04.510Z,97.58
2023-01-30T04:27:04.726Z,97.69
2023-01-30T04:28:04.576Z,97.48
2023-01-30T04:29:04.455Z,97.27
2023-01-30T04:30:04.502Z,97.27
2023-01-30T04:31:04.457Z,97.17
2023-01-30T04:32:04.581Z,96.95
2023-01-30T04:33:04.381Z,96.95
2023-01-30T04:34:04.448Z,96.85
2023-01-30T04:35:04.439Z,96.85
2023-01-30T04:36:04.640Z,96.64
2023-01-30T04:37:04.422Z,96.53
2023-01-30T04:38:04.593Z,96.53
2023-01-30T04:39:04.304Z,96.28
2023-01-30T04:40:04.592Z,96.18
2023-01-30T04:41:04.462Z,95.97
2023-01-30T04:42:04.333Z,95.86
2023-01-30T04:43:04.266Z,95.76
2023-01-30T04:44:04.256Z,95.76
2023-01-30T04:45:04.488Z,95.65
2023-01-30T04:46:04.269Z,95.65
2023-01-30T04:47:04.225Z,95.65
2023-01-30T04:48:04.330Z,95.97
2023-01-30T04:49:04.197Z,95.97
2023-01-30T04:50:04.269Z,95.76
2023-01-30T04:51:04.417Z,95.86
2023-01-30T04:52:04.247Z,95.54
2023-01-30T04:53:04.402Z,95.44
2023-01-30T04:54:04.181Z,95.76
2023-01-30T04:55:04.116Z,95.97
2023-01-30T04:56:04.134Z,95.61
2023-01-30T04:57:04.089Z,95.61
2023-01-30T04:58:04.073Z,95.50
2023-01-30T04:59:04.175Z,95.08
2023-01-30T05:00:04.042Z,94.87
2023-01-30T05:01:04.091Z,94.77
2023-01-30T05:02:04.095Z,94.67
2023-01-30T05:03:04.086Z,94.87
2023-01-30T05:04:04.007Z,94.41
2023-01-30T05:05:04.227Z,94.31
2023-01-30T05:06:03.976Z,94.62
2023-01-30T05:07:04.117Z,94.51
2023-01-30T05:08:04.007Z,94.51
2023-01-30T05:09:04.105Z,93.78
2023-01-30T05:10:03.950Z,93.88
2023-01-30T05:11:03.977Z,93.53
2023-01-30T05:12:03.906Z,93.21
2023-01-30T05:13:03.903Z,93.43
2023-01-30T05:14:03.946Z,93.43
2023-01-30T05:15:03.843Z,93.53
2023-01-30T05:16:04.029Z,93.74
2023-01-30T05:17:03.853Z,93.63
2023-01-30T05:18:03.864Z,93.43
2023-01-30T05:19:03.831Z,93.32
2023-01-30T05:20:03.901Z,93.53
2023-01-30T05:21:03.832Z,93.01
2023-01-30T05:22:03.959Z,93.01
2023-01-30T05:23:03.770Z,92.90
2023-01-30T05:24:03.940Z,92.80
2023-01-30T05:25:03.779Z,93.01
2023-01-30T05:26:03.813Z,93.01
2023-01-30T05:27:03.786Z,92.80
2023-01-30T05:28:03.742Z,93.21
2023-01-30T05:29:03.720Z,93.32
2023-01-30T05:30:03.653Z,93.01
2023-01-30T05:31:03.930Z,92.80
2023-01-30T05:32:03.721Z,92.69
2023-01-30T05:33:03.777Z,93.11
2023-01-30T05:34:03.645Z,93.21
2023-01-30T05:35:03.810Z,92.38
2023-01-30T05:36:03.608Z,92.58
2023-01-30T05:37:03.689Z,92.38
2023-01-30T05:38:03.544Z,91.96
2023-01-30T05:39:03.792Z,91.75
2023-01-30T05:40:03.532Z,91.64
2023-01-30T05:41:03.570Z,91.96
2023-01-30T05:42:03.500Z,91.71
2023-01-30T05:43:03.570Z,91.18
2023-01-30T05:44:03.513Z,91.71
2023-01-30T05:45:03.533Z,92.44
2023-01-30T05:46:03.469Z,92.33
2023-01-30T05:47:03.474Z,92.54
2023-01-30T05:48:03.510Z,92.54
2023-01-30T05:49:03.441Z,92.06
2023-01-30T05:50:03.428Z,91.81
2023-01-30T05:51:03.457Z,91.91
2023-01-30T05:52:03.391Z,92.23
2023-01-30T05:53:03.445Z,92.02
2023-01-30T05:54:03.368Z,92.02
2023-01-30T05:55:03.325Z,92.13
2023-01-30T05:56:03.396Z,91.81
2023-01-30T05:57:03.449Z,92.02
2023-01-30T05:58:03.357Z,91.60
2023-01-30T05:59:03.337Z,91.81
2023-01-30T06:00:03.310Z,91.71
2023-01-30T06:01:03.323Z,90.97
2023-01-30T06:02:03.359Z,90.45
2023-01-30T06:03:03.341Z,90.30
2023-01-30T06:04:03.485Z,89.88
2023-01-30T06:05:03.212Z,89.04
2023-01-30T06:06:03.231Z,89.78
2023-01-30T06:07:03.171Z,90.51
2023-01-30T06:08:03.402Z,91.24
2023-01-30T06:09:03.132Z,90.83
2023-01-30T06:10:03.176Z,90.83
2023-01-30T06:11:03.137Z,91.03
2023-01-30T06:12:03.126Z,90.87
2023-01-30T06:13:03.157Z,90.41
2023-01-30T06:14:03.328Z,90.87
2023-01-30T06:15:03.115Z,90.66
2023-01-30T06:16:03.129Z,90.76
2023-01-30T06:17:03.170Z,90.23
2023-01-30T06:18:03.065Z,90.76
2023-01-30T06:19:03.052Z,90.55
2023-01-30T06:20:03.371Z,90.13
2023-01-30T06:21:03.051Z,90.76
2023-01-30T06:22:03.302Z,90.97
2023-01-30T06:23:03.136Z,90.76
2023-01-30T06:24:02.950Z,90.66
2023-01-30T06:25:03.152Z,90.45
2023-01-30T06:26:04.942Z,90.13
2023-01-30T06:27:03.141Z,90.34
2023-01-30T06:28:02.894Z,90.76
2023-01-30T06:29:03.010Z,91.01
2023-01-30T06:30:02.962Z,91.22
2023-01-30T06:31:03.170Z,91.33
2023-01-30T06:32:03.052Z,92.16
2023-01-30T06:33:03.166Z,92.16
2023-01-30T06:34:02.853Z,92.80
2023-01-30T06:35:02.873Z,93.11
2023-01-30T06:36:02.878Z,93.43
2023-01-30T06:37:02.907Z,93.57
2023-01-30T06:38:02.789Z,93.68
2023-01-30T06:39:02.797Z,93.47
2023-01-30T06:40:02.809Z,93.47
2023-01-30T06:41:02.741Z,93.57
2023-01-30T06:42:02.818Z,93.68
2023-01-30T06:43:02.901Z,93.62
2023-01-30T06:44:02.710Z,93.62
2023-01-30T06:45:02.835Z,93.93
2023-01-30T06:46:02.685Z,94.35
2023-01-30T06:47:02.845Z,94.67
2023-01-30T06:48:02.700Z,94.77
2023-01-30T06:49:02.863Z,94.98
2023-01-30T06:50:02.663Z,95.13
2023-01-30T06:51:02.881Z,95.23
2023-01-30T06:52:02.664Z,95.44
2023-01-30T06:53:02.601Z,95.13
2023-01-30T06:54:02.717Z,94.92
2023-01-30T06:55:03.164Z,94.92
2023-01-30T06:56:02.678Z,95.02
2023-01-30T06:57:02.576Z,95.02
2023-01-30T06:58:02.708Z,95.02
2023-01-30T06:59:02.588Z,95.13
2023-01-30T07:00:02.490Z,95.23
2023-01-30T07:01:02.553Z,95.23
2023-01-30T07:02:02.475Z,95.34
2023-01-30T07:03:02.438Z,95.23
2023-01-30T07:04:02.481Z,95.23
2023-01-30T07:05:02.551Z,95.23
2023-01-30T07:06:02.651Z,95.13
2023-01-30T07:07:02.511Z,94.81
2023-01-30T07:08:02.412Z,94.71
2023-01-30T07:09:02.512Z,94.71
2023-01-30T07:10:08.249Z,94.49
2023-01-30T07:11:02.489Z,94.18
2023-01-30T07:12:02.327Z,93.82
2023-01-30T07:13:02.496Z,93.51
2023-01-30T07:14:02.350Z,93.40
2023-01-30T07:15:02.497Z,93.40
2023-01-30T07:16:02.364Z,92.94
2023-01-30T07:17:02.363Z,92.42
2023-01-30T07:18:02.258Z,92.16
2023-01-30T07:19:02.526Z,92.27
2023-01-30T07:20:02.220Z,90.59
2023-01-30T07:21:02.263Z,90.49
2023-01-30T07:22:03.356Z,90.34
2023-01-30T07:23:02.258Z,90.76
2023-01-30T07:24:02.211Z,90.45
2023-01-30T07:25:02.184Z,90.34
2023-01-30T07:26:02.192Z,90.34
2023-01-30T07:27:02.188Z,90.34
2023-01-30T07:28:02.325Z,90.13
2023-01-30T07:29:02.165Z,90.13
2023-01-30T07:30:02.341Z,89.82
2023-01-30T07:31:02.315Z,89.61
2023-01-30T07:32:02.100Z,89.29
2023-01-30T07:33:02.101Z,89.29
2023-01-30T07:34:02.090Z,89.29
2023-01-30T07:35:04.240Z,89.29
2023-01-30T07:36:02.031Z,89.61
2023-01-30T07:37:02.020Z,89.09
2023-01-30T07:38:02.090Z,89.29
2023-01-30T07:39:01.980Z,88.56
2023-01-30T07:40:02.066Z,88.04
2023-01-30T07:41:02.180Z,88.21
2023-01-30T07:42:02.009Z,88.10
2023-01-30T07:43:02.198Z,87.99
2023-01-30T07:44:02.044Z,87.99
2023-01-30T07:45:02.189Z,87.96
2023-01-30T07:46:02.063Z,87.43
2023-01-30T07:47:02.016Z,87.64
2023-01-30T07:48:02.018Z,87.54
2023-01-30T07:49:01.923Z,86.98
2023-01-30T07:50:01.869Z,86.31
2023-01-30T07:51:01.871Z,85.89
2023-01-30T07:52:02.013Z,85.22
2023-01-30T07:53:01.801Z,84.49
2023-01-30T07:54:01.849Z,84.17
2023-01-30T07:55:01.941Z,84.17
2023-01-30T07:56:01.755Z,84.28
2023-01-30T07:57:01.862Z,83.65
2023-01-30T07:58:01.757Z,83.72
2023-01-30T07:59:01.900Z,83.30
2023-01-30T08:00:01.719Z,83.09
2023-01-30T08:01:01.723Z,83.06
2023-01-30T08:02:01.698Z,82.43
2023-01-30T08:03:01.679Z,82.57
2023-01-30T08:04:01.664Z,83.62
2023-01-30T08:05:01.702Z,83.86
2023-01-30T08:06:02.141Z,84.17
2023-01-30T08:07:01.596Z,84.28
2023-01-30T08:08:01.614Z,84.63
2023-01-30T08:09:01.622Z,85.68
2023-01-30T08:10:01.584Z,85.36
2023-01-30T08:11:01.643Z,85.99
2023-01-30T08:12:01.596Z,85.78
2023-01-30T08:13:01.582Z,85.22
2023-01-30T08:14:01.564Z,85.12
2023-01-30T08:15:01.491Z,84.11
2023-01-30T08:16:01.579Z,84.53
2023-01-30T08:17:01.510Z,84.53
2023-01-30T08:18:01.448Z,85.36
2023-01-30T08:19:01.477Z,85.89
2023-01-30T08:20:01.463Z,85.68
2023-01-30T08:21:01.418Z,86.93
2023-01-30T08:22:01.502Z,86.52
2023-01-30T08:23:01.403Z,87.35
2023-01-30T08:24:01.609Z,87.25
2023-01-30T08:25:01.410Z,87.15
2023-01-30T08:26:01.375Z,87.25
2023-01-30T08:27:01.383Z,87.04
2023-01-30T08:28:01.390Z,87.21
2023-01-30T08:29:01.329Z,86.69
2023-01-30T08:30:01.356Z,87.21
2023-01-30T08:31:01.369Z,86.23
2023-01-30T08:32:01.305Z,85.39
2023-01-30T08:33:01.407Z,84.77
2023-01-30T08:34:01.376Z,85.71
2023-01-30T08:35:01.283Z,84.66
2023-01-30T08:36:01.273Z,84.94
2023-01-30T08:37:01.297Z,84.41
2023-01-30T08:38:01.233Z,84.00
2023-01-30T08:39:01.267Z,83.26
2023-01-30T08:40:01.174Z,83.44
2023-01-30T08:41:01.228Z,82.60
2023-01-30T08:42:01.142Z,81.76
2023-01-30T08:43:01.166Z,81.45
2023-01-30T08:44:01.148Z,81.10
2023-01-30T08:45:01.223Z,81.41
2023-01-30T08:46:01.124Z,81.52
2023-01-30T08:47:01.082Z,80.79
2023-01-30T08:48:01.026Z,80.85
2023-01-30T08:49:01.069Z,81.16
2023-01-30T08:50:01.070Z,80.65
2023-01-30T08:51:01.159Z,80.65
2023-01-30T08:52:01.012Z,80.30
2023-01-30T08:53:01.023Z,80.71
2023-01-30T08:54:01.053Z,80.92
2023-01-30T08:55:01.007Z,81.96
2023-01-30T08:56:00.987Z,82.80
2023-01-30T08:57:01.022Z,81.55
2023-01-30T08:58:00.977Z,81.45
2023-01-30T08:59:00.904Z,80.78
2023-01-30T09:00:00.931Z,81.93
2023-01-30T09:01:00.966Z,81.72
2023-01-30T09:02:00.916Z,81.58
2023-01-30T09:03:00.928Z,82.20
2023-01-30T09:04:00.874Z,81.33
2023-01-30T09:05:00.877Z,80.81
2023-01-30T09:06:00.874Z,80.71
2023-01-30T09:07:00.821Z,80.29
2023-01-30T09:08:00.882Z,80.29
2023-01-30T09:09:00.766Z,79.52
2023-01-30T09:10:00.836Z,78.97
2023-01-30T09:11:00.840Z,78.24
2023-01-30T09:12:00.777Z,77.27
2023-01-30T09:13:00.815Z,76.85
2023-01-30T09:14:00.802Z,76.85
2023-01-30T09:15:00.768Z,78.10
2023-01-30T09:16:00.726Z,76.33
2023-01-30T09:17:00.837Z,78.20
2023-01-30T09:18:00.835Z,75.98
2023-01-30T09:19:00.672Z,76.26
2023-01-30T09:20:00.817Z,75.43
2023-01-30T09:21:00.632Z,75.43
2023-01-30T09:22:00.635Z,75.54
2023-01-30T09:23:00.622Z,75.81
2023-01-30T09:24:00.683Z,74.88
2023-01-30T09:25:00.691Z,74.26
2023-01-30T09:26:00.595Z,74.46
2023-01-30T09:27:00.591Z,73.04
2023-01-30T09:28:00.614Z,73.46
2023-01-30T09:29:00.607Z,73.53
2023-01-30T09:30:00.607Z,71.28
2023-01-30T09:31:00.728Z,69.27
2023-01-30T09:32:00.548Z,70.69
2023-01-30T09:33:00.518Z,71.31
2023-01-30T09:34:00.474Z,70.07
2023-01-30T09:35:00.561Z,69.00
2023-01-30T09:36:00.488Z,67.61
2023-01-30T09:37:00.515Z,66.17
2023-01-30T09:38:00.464Z,67.30
2023-01-30T09:39:00.420Z,65.20
2023-01-30T09:40:00.615Z,63.75
2023-01-30T09:41:00.379Z,64.89
2023-01-30T09:42:00.384Z,64.58
2023-01-30T09:43:00.365Z,63.13
2023-01-30T09:44:00.335Z,64.37
2023-01-30T09:45:00.319Z,65.52
2023-01-30T09:46:00.525Z,63.44
2023-01-30T09:47:00.360Z,62.92
2023-01-30T09:48:01.693Z,64.37
2023-01-30T09:49:00.298Z,65.83
2023-01-30T09:50:00.346Z,65.52
2023-01-30T09:51:00.415Z,65.00
2023-01-30T09:52:00.339Z,64.79
2023-01-30T09:53:00.246Z,64.06
2023-01-30T09:54:01.224Z,65.00
2023-01-30T09:55:00.292Z,63.54
2023-01-30T09:56:00.224Z,64.37
2023-01-30T09:57:00.274Z,66.24
2023-01-30T09:58:00.141Z,64.82
2023-01-30T09:59:00.164Z,66.17
2023-01-30T10:00:00.161Z,66.27
2023-01-30T10:01:00.171Z,66.47
2023-01-30T10:02:00.191Z,66.89
2023-01-30T10:03:00.142Z,66.06
2023-01-30T10:04:00.129Z,66.27
2023-01-30T10:05:02.140Z,66.89
2023-01-30T10:06:00.130Z,66.89
2023-01-30T10:07:00.126Z,67.51
2023-01-30T10:08:00.330Z,66.68
2023-01-30T10:08:59.993Z,67.93
2023-01-30T10:10:00.044Z,66.24
2023-01-30T10:11:09.513Z,66.96
2023-01-30T10:12:00.037Z,68.00
2023-01-30T10:13:00.010Z,67.79
2023-01-30T10:13:59.965Z,67.48
2023-01-30T10:14:59.960Z,67.86
2023-01-30T10:16:00.020Z,67.97
2023-01-30T10:16:59.948Z,68.04
2023-01-30T10:17:59.963Z,67.83
2023-01-30T10:18:59.986Z,66.69
2023-01-30T10:19:59.942Z,66.18
2023-01-30T10:20:59.911Z,66.90
2023-01-30T10:21:59.857Z,67.94
2023-01-30T10:22:59.829Z,67.42
2023-01-30T10:23:59.787Z,66.18
2023-01-30T10:24:59.874Z,67.94
2023-01-30T10:25:59.885Z,67.11
2023-01-30T10:26:59.815Z,67.00
2023-01-30T10:27:59.766Z,68.77
2023-01-30T10:29:07.254Z,67.42
2023-01-30T10:29:59.766Z,68.56
2023-01-30T10:31:00.031Z,66.80
2023-01-30T10:31:59.735Z,66.49
2023-01-30T10:32:59.750Z,67.91
2023-01-30T10:33:59.680Z,67.29
2023-01-30T10:34:59.681Z,66.46
2023-01-30T10:35:59.691Z,67.18
2023-01-30T10:36:59.632Z,66.56
2023-01-30T10:37:59.635Z,66.25
2023-01-30T10:38:59.649Z,66.22
2023-01-30T10:39:59.644Z,65.70
2023-01-30T10:40:59.803Z,66.42
2023-01-30T10:41:59.576Z,65.81
2023-01-30T10:42:59.613Z,65.91
2023-01-30T10:43:59.607Z,65.08
2023-01-30T10:44:59.534Z,65.91
2023-01-30T10:45:59.575Z,66.02
2023-01-30T10:46:59.605Z,67.25
2023-01-30T10:47:59.513Z,68.63
2023-01-30T10:48:59.563Z,69.04
2023-01-30T10:49:59.511Z,69.35
2023-01-30T10:50:59.465Z,70.08
2023-01-30T10:51:59.452Z,68.35
2023-01-30T10:52:59.615Z,69.80
2023-01-30T10:53:59.402Z,69.70
2023-01-30T10:54:59.435Z,69.39
2023-01-30T10:55:59.442Z,69.49
2023-01-30T10:56:59.385Z,69.60
2023-01-30T10:57:59.379Z,69.42
2023-01-30T10:58:59.338Z,70.67
2023-01-30T10:59:59.386Z,71.49
2023-01-30T11:00:59.336Z,70.36
2023-01-30T11:01:59.413Z,70.87
2023-01-30T11:02:59.408Z,70.36
2023-01-30T11:03:59.325Z,72.22
2023-01-30T11:04:59.286Z,71.70
2023-01-30T11:05:59.270Z,71.08
2023-01-30T11:06:59.260Z,72.71
2023-01-30T11:07:59.245Z,70.87
2023-01-30T11:08:59.332Z,72.01
2023-01-30T11:09:59.226Z,71.80
2023-01-30T11:10:59.246Z,71.80
2023-01-30T11:11:59.216Z,72.22
2023-01-30T11:12:59.202Z,73.46
2023-01-30T11:13:59.251Z,73.98
2023-01-30T11:14:59.319Z,72.74
2023-01-30T11:15:59.208Z,72.22
2023-01-30T11:16:59.157Z,72.42
2023-01-30T11:18:27.266Z,71.80
2023-01-30T11:19:59.075Z,72.01
2023-01-30T11:20:59.105Z,72.42
2023-01-30T11:21:59.057Z,73.88
2023-01-30T11:22:59.036Z,72.84
2023-01-30T11:23:59.116Z,72.74
2023-01-30T11:24:59.042Z,73.05
2023-01-30T11:26:10.404Z,73.46
2023-01-30T11:26:59.009Z,71.04
2023-01-30T11:27:59.010Z,71.98
2023-01-30T11:28:58.989Z,72.15
2023-01-30T11:29:59.011Z,73.39
2023-01-30T11:30:58.991Z,72.88
2023-01-30T11:31:59.027Z,71.94
2023-01-30T11:32:58.982Z,72.43
2023-01-30T11:33:58.912Z,73.05
2023-01-30T11:34:58.956Z,72.22
2023-01-30T11:35:58.889Z,74.08
2023-01-30T11:36:58.976Z,74.36
2023-01-30T11:37:58.877Z,74.26
2023-01-30T11:38:58.986Z,73.74
2023-01-30T11:39:58.958Z,72.60
2023-01-30T11:40:58.846Z,72.16
2023-01-30T11:41:58.807Z,72.88
2023-01-30T11:42:58.794Z,71.43
2023-01-30T11:43:58.796Z,71.95
2023-01-30T11:45:15.709Z,73.64
2023-01-30T11:45:58.927Z,74.22
2023-01-30T11:46:58.770Z,74.33
2023-01-30T11:48:04.517Z,72.98
2023-01-30T11:49:06.169Z,73.94
2023-01-30T11:50:16.915Z,75.78
2023-01-30T11:50:58.740Z,75.81
2023-01-30T11:51:58.829Z,74.77
2023-01-30T11:52:58.637Z,75.09
2023-01-30T11:53:58.833Z,74.98
2023-01-30T11:54:58.666Z,74.98
2023-01-30T11:56:05.280Z,75.60
2023-01-30T11:56:58.625Z,74.46
2023-01-30T11:57:58.628Z,75.40
2023-01-30T11:58:58.652Z,74.57
2023-01-30T11:59:58.544Z,75.40
2023-01-30T12:00:58.632Z,75.19
2023-01-30T12:01:58.553Z,74.46
2023-01-30T12:02:58.566Z,73.39
2023-01-30T12:03:58.512Z,73.74
2023-01-30T12:04:58.533Z,74.36
2023-01-30T12:05:58.493Z,74.77
2023-01-30T12:06:58.541Z,75.19
2023-01-30T12:07:58.511Z,76.01
2023-01-30T12:08:58.432Z,76.01
2023-01-30T12:09:58.512Z,74.98
2023-01-30T12:10:58.424Z,75.50
2023-01-30T12:11:58.485Z,74.98
2023-01-30T12:12:58.408Z,75.19
2023-01-30T12:13:58.397Z,75.70
2023-01-30T12:14:58.377Z,76.26
2023-01-30T12:15:58.346Z,77.09
2023-01-30T12:16:58.430Z,77.39
2023-01-30T12:17:58.286Z,77.81
2023-01-30T12:18:58.300Z,77.39
2023-01-30T12:19:58.310Z,77.43
2023-01-30T12:20:58.277Z,78.05
2023-01-30T12:21:58.377Z,78.47
2023-01-30T12:22:58.321Z,78.47
2023-01-30T12:23:58.230Z,78.99
2023-01-30T12:24:58.349Z,79.19
2023-01-30T12:25:58.205Z,78.88
2023-01-30T12:26:58.182Z,78.57
2023-01-30T12:28:02.979Z,78.88
2023-01-30T12:28:58.207Z,79.50
2023-01-30T12:29:58.172Z,80.12
2023-01-30T12:30:58.190Z,80.22
2023-01-30T12:31:58.144Z,79.91
2023-01-30T12:32:58.114Z,79.30
2023-01-30T12:33:58.213Z,79.30
2023-01-30T12:34:58.125Z,79.71
2023-01-30T12:35:58.095Z,79.81
2023-01-30T12:36:58.367Z,80.02
2023-01-30T12:37:58.090Z,78.78
2023-01-30T12:38:58.113Z,79.91
2023-01-30T12:39:58.071Z,80.43
2023-01-30T12:40:58.024Z,80.33
2023-01-30T12:41:58.052Z,81.05
2023-01-30T12:42:58.045Z,80.74
2023-01-30T12:43:58.005Z,80.95
2023-01-30T12:44:58.042Z,80.64
2023-01-30T12:45:57.958Z,81.88
2023-01-30T12:46:57.995Z,80.74
2023-01-30T12:47:57.972Z,80.02
2023-01-30T12:49:12.710Z,80.43
2023-01-30T12:49:57.907Z,81.47
2023-01-30T12:50:57.955Z,81.40
2023-01-30T12:51:57.855Z,82.65
2023-01-30T12:52:58.017Z,81.61